createdAt,value
2019-05-23T00:02:05.984Z,68.70
2019-05-23T00:04:44.501Z,67.80
2019-05-23T00:07:21.029Z,67.10
2019-05-23T00:09:56.729Z,67.90
2019-05-23T00:12:47.706Z,67.00
2019-05-23T00:15:29.548Z,67.00
2019-05-23T00:18:04.223Z,66.50
2019-05-23T00:20:38.782Z,66.40
2019-05-23T00:23:14.515Z,67.60
2019-05-23T00:25:49.972Z,67.60
2019-05-23T00:28:25.501Z,66.80
2019-05-23T00:31:12.456Z,66.70
2019-05-23T00:33:46.155Z,67.50
2019-05-23T00:36:20.179Z,66.90
2019-05-23T00:38:56.268Z,66.10
2019-05-23T00:41:33.239Z,65.60
2019-05-23T00:44:08.846Z,65.90
2019-05-23T00:46:44.077Z,66.20
2019-05-23T00:49:19.456Z,65.80
2019-05-23T00:51:54.385Z,65.40
2019-05-23T00:54:28.929Z,65.30
2019-05-23T00:57:02.947Z,65.50
2019-05-23T00:59:37.507Z,65.60
2019-05-23T01:02:12.074Z,65.00
2019-05-23T01:04:46.609Z,65.10
2019-05-23T01:07:21.857Z,64.90
2019-05-23T01:09:55.850Z,64.40
2019-05-23T01:12:29.982Z,65.00
2019-05-23T01:15:04.787Z,65.40
2019-05-23T01:17:39.309Z,65.30
2019-05-23T01:20:14.003Z,64.90
2019-05-23T01:22:49.582Z,65.10
2019-05-23T01:25:26.764Z,63.70
2019-05-23T01:28:01.548Z,63.60
2019-05-23T01:30:41.437Z,63.20
2019-05-23T01:33:17.507Z,64.20
2019-05-23T01:35:52.652Z,65.20
2019-05-23T01:38:27.489Z,66.00
2019-05-23T01:41:02.918Z,66.40
2019-05-23T01:43:38.877Z,66.20
2019-05-23T01:46:14.611Z,66.50
2019-05-23T01:48:49.776Z,67.40
2019-05-23T01:51:25.036Z,67.40
2019-05-23T01:53:59.729Z,66.70
2019-05-23T01:56:34.263Z,65.50
2019-05-23T01:59:10.316Z,63.90
2019-05-23T02:01:44.747Z,63.70
2019-05-23T02:04:19.164Z,63.70
2019-05-23T02:06:53.293Z,63.40
2019-05-23T02:09:27.416Z,63.70
2019-05-23T02:12:02.013Z,63.50
2019-05-23T02:14:35.592Z,64.60
2019-05-23T02:17:11.381Z,65.20
2019-05-23T02:19:46.024Z,65.80
2019-05-23T02:22:19.997Z,66.80
2019-05-23T02:24:54.342Z,67.10
2019-05-23T02:27:28.139Z,66.60
2019-05-23T02:30:03.063Z,66.00
2019-05-23T02:32:37.585Z,65.00
2019-05-23T02:35:12.493Z,65.10
2019-05-23T02:38:07.643Z,65.20
2019-05-23T02:41:00.304Z,64.90
2019-05-23T02:43:35.644Z,66.10
2019-05-23T02:46:16.850Z,67.00
2019-05-23T02:48:52.036Z,66.40
2019-05-23T02:51:33.339Z,66.20
2019-05-23T02:54:11.036Z,66.20
2019-05-23T02:56:46.946Z,65.90
2019-05-23T02:59:39.568Z,66.20
2019-05-23T03:02:48.859Z,66.10
2019-05-23T03:05:26.781Z,66.90
2019-05-23T03:08:01.286Z,66.60
2019-05-23T03:11:15.694Z,65.90
2019-05-23T03:13:50.245Z,66.30
2019-05-23T03:16:25.651Z,65.90
2019-05-23T03:19:04.037Z,65.70
2019-05-23T03:21:37.739Z,65.10
2019-05-23T03:24:12.329Z,65.80
2019-05-23T03:27:13.629Z,65.50
2019-05-23T03:29:47.438Z,65.40
2019-05-23T03:32:40.251Z,64.60
2019-05-23T03:35:32.491Z,65.20
2019-05-23T03:38:08.458Z,65.90
2019-05-23T03:40:41.867Z,66.60
2019-05-23T03:43:16.755Z,65.30
2019-05-23T03:45:53.443Z,64.80
2019-05-23T03:48:30.370Z,64.40
2019-05-23T03:51:03.918Z,63.50
2019-05-23T03:53:39.481Z,63.10
2019-05-23T03:56:14.134Z,63.60
2019-05-23T03:58:48.510Z,64.70
2019-05-23T04:01:24.485Z,66.30
2019-05-23T04:03:59.425Z,65.50
2019-05-23T04:06:33.872Z,66.10
2019-05-23T04:09:08.525Z,66.70
2019-05-23T04:11:42.743Z,66.70
2019-05-23T04:14:16.397Z,66.10
2019-05-23T04:16:51.318Z,65.20
2019-05-23T04:19:25.237Z,64.60
2019-05-23T04:21:59.410Z,63.70
2019-05-23T04:24:33.866Z,63.70
2019-05-23T04:27:07.795Z,64.20
2019-05-23T04:29:42.202Z,64.20
2019-05-23T04:32:17.235Z,65.00
2019-05-23T04:34:51.038Z,65.80
2019-05-23T04:37:25.292Z,67.10
2019-05-23T04:39:58.983Z,67.30
2019-05-23T04:42:32.965Z,66.60
2019-05-23T04:45:06.349Z,66.80
2019-05-23T04:47:41.324Z,65.00
2019-05-23T04:50:15.218Z,63.80
2019-05-23T04:52:49.116Z,64.10
2019-05-23T04:55:23.133Z,64.90
2019-05-23T04:57:56.972Z,65.40
2019-05-23T05:00:32.201Z,65.10
2019-05-23T05:03:08.037Z,65.10
2019-05-23T05:05:41.979Z,65.30
2019-05-23T05:08:15.594Z,65.10
2019-05-23T05:10:50.293Z,64.50
2019-05-23T05:13:25.301Z,64.90
2019-05-23T05:15:59.017Z,65.20
2019-05-23T05:18:33.341Z,64.40
2019-05-23T05:21:06.262Z,64.10
2019-05-23T05:23:41.068Z,64.50
2019-05-23T05:26:22.614Z,64.50
2019-05-23T05:28:56.881Z,64.70
2019-05-23T05:31:31.789Z,64.90
2019-05-23T05:34:05.047Z,64.10
2019-05-23T05:36:38.811Z,64.30
2019-05-23T05:39:13.603Z,64.60
2019-05-23T05:41:48.033Z,64.10
2019-05-23T05:44:22.238Z,64.20
2019-05-23T05:46:56.484Z,64.30
2019-05-23T05:49:30.785Z,64.70
2019-05-23T05:52:06.233Z,64.00
2019-05-23T05:54:39.902Z,64.10
2019-05-23T05:57:13.512Z,64.20
2019-05-23T05:59:46.829Z,63.10
2019-05-23T06:02:20.328Z,62.80
2019-05-23T06:04:53.815Z,63.50
2019-05-23T06:07:32.859Z,62.70
2019-05-23T06:10:09.849Z,62.90
2019-05-23T06:12:43.429Z,63.40
2019-05-23T06:15:18.496Z,62.90
2019-05-23T06:17:52.761Z,61.80
2019-05-23T06:20:27.906Z,61.40
2019-05-23T06:23:03.377Z,61.00
2019-05-23T06:25:37.481Z,61.80
2019-05-23T06:28:12.226Z,62.40
2019-05-23T06:30:46.665Z,62.70
2019-05-23T06:33:23.751Z,63.20
2019-05-23T06:35:58.351Z,62.60
2019-05-23T06:38:33.174Z,62.40
2019-05-23T06:41:08.585Z,62.80
2019-05-23T06:43:43.790Z,63.10
2019-05-23T06:46:18.204Z,62.70
2019-05-23T06:48:52.467Z,63.10
2019-05-23T06:51:27.076Z,63.00
2019-05-23T06:54:00.830Z,62.70
2019-05-23T06:56:33.764Z,63.50
2019-05-23T06:59:06.751Z,65.30
2019-05-23T07:01:40.193Z,65.90
2019-05-23T07:04:13.555Z,65.40
2019-05-23T07:06:46.501Z,65.90
2019-05-23T07:09:22.625Z,66.10
2019-05-23T07:11:59.712Z,66.30
2019-05-23T07:14:33.337Z,65.60
2019-05-23T07:17:08.050Z,64.90
2019-05-23T07:19:41.259Z,64.90
2019-05-23T07:22:18.316Z,64.10
2019-05-23T07:24:57.965Z,65.40
2019-05-23T07:27:30.008Z,64.30
2019-05-23T07:30:04.892Z,63.70
2019-05-23T07:32:39.434Z,63.70
2019-05-23T07:35:13.179Z,63.60
2019-05-23T07:37:47.313Z,63.60
2019-05-23T07:40:21.926Z,63.90
2019-05-23T07:42:56.051Z,64.50
2019-05-23T07:45:39.950Z,63.90
2019-05-23T07:48:14.966Z,62.20
2019-05-23T07:50:48.833Z,62.40
2019-05-23T07:53:32.702Z,61.90
2019-05-23T07:56:07.440Z,63.40
2019-05-23T07:58:41.600Z,63.30
2019-05-23T08:01:17.814Z,63.50
2019-05-23T08:03:54.456Z,64.80
2019-05-23T08:06:29.533Z,66.10
2019-05-23T08:09:05.369Z,65.50
2019-05-23T08:11:39.385Z,65.70
2019-05-23T08:14:13.831Z,64.80
2019-05-23T08:16:47.369Z,63.50
2019-05-23T08:19:21.618Z,62.50
2019-05-23T08:21:54.486Z,61.70
2019-05-23T08:24:27.375Z,62.50
2019-05-23T08:27:02.444Z,62.80
2019-05-23T08:29:35.427Z,63.30
2019-05-23T08:32:07.511Z,64.00
2019-05-23T08:34:42.683Z,63.50
2019-05-23T08:37:15.710Z,63.30
2019-05-23T08:39:49.283Z,63.90
2019-05-23T08:42:23.128Z,63.90
2019-05-23T08:44:56.591Z,63.90
2019-05-23T08:47:29.423Z,64.60
2019-05-23T08:50:04.131Z,65.40
2019-05-23T08:52:37.701Z,65.60
2019-05-23T08:55:22.911Z,66.00
2019-05-23T08:57:58.919Z,64.00
2019-05-23T09:00:35.788Z,64.80
2019-05-23T09:03:11.151Z,64.80
2019-05-23T09:05:45.018Z,64.10
2019-05-23T09:08:20.124Z,62.50
2019-05-23T09:10:54.725Z,61.70
2019-05-23T09:13:28.410Z,61.30
2019-05-23T09:16:02.358Z,60.90
2019-05-23T09:18:36.728Z,61.50
2019-05-23T09:21:10.131Z,62.10
2019-05-23T09:23:42.329Z,61.90
2019-05-23T09:26:15.517Z,62.40
2019-05-23T09:28:48.751Z,61.10
2019-05-23T09:31:22.589Z,60.60
2019-05-23T09:33:55.323Z,60.40
2019-05-23T09:36:28.699Z,60.90
2019-05-23T09:39:02.921Z,61.10
2019-05-23T09:41:37.955Z,60.80
2019-05-23T09:44:11.320Z,61.00
2019-05-23T09:46:44.651Z,61.00
2019-05-23T09:49:18.107Z,61.00
2019-05-23T09:51:55.824Z,61.10
2019-05-23T09:54:27.773Z,60.70
2019-05-23T09:57:01.375Z,61.00
2019-05-23T09:59:35.566Z,61.40
2019-05-23T10:02:09.521Z,61.60
2019-05-23T10:04:43.589Z,61.10
2019-05-23T10:07:17.891Z,61.80
2019-05-23T10:09:51.672Z,61.90
2019-05-23T10:12:25.363Z,61.00
2019-05-23T10:14:59.555Z,61.20
2019-05-23T10:17:33.281Z,62.10
2019-05-23T10:20:06.705Z,62.00
2019-05-23T10:22:40.593Z,61.80
2019-05-23T10:25:14.580Z,60.90
2019-05-23T10:27:48.793Z,60.40
2019-05-23T10:30:24.063Z,60.00
2019-05-23T10:32:57.479Z,59.90
2019-05-23T10:35:32.364Z,59.20
2019-05-23T10:38:05.664Z,59.10
2019-05-23T10:40:39.221Z,59.70
2019-05-23T10:43:14.094Z,60.80
2019-05-23T10:45:47.816Z,61.90
2019-05-23T10:48:22.045Z,62.30
2019-05-23T10:50:56.247Z,63.10
2019-05-23T10:53:29.983Z,63.60
2019-05-23T10:56:03.946Z,64.20
2019-05-23T10:58:38.203Z,65.00
2019-05-23T11:01:13.436Z,65.20
2019-05-23T11:03:47.196Z,64.80
2019-05-23T11:06:21.677Z,64.70
2019-05-23T11:08:55.182Z,64.90
2019-05-23T11:11:29.903Z,64.80
2019-05-23T11:14:08.399Z,64.80
2019-05-23T11:16:41.686Z,63.50
2019-05-23T11:19:15.933Z,64.10
2019-05-23T11:21:49.582Z,64.80
2019-05-23T11:24:23.995Z,64.50
2019-05-23T11:26:57.930Z,64.30
2019-05-23T11:29:32.542Z,63.70
2019-05-23T11:32:07.697Z,63.20
2019-05-23T11:34:41.415Z,62.30
2019-05-23T11:37:15.130Z,62.10
2019-05-23T11:39:50.894Z,62.50
2019-05-23T11:42:26.000Z,63.30
2019-05-23T11:44:59.808Z,63.50
2019-05-23T11:47:34.437Z,63.10
2019-05-23T11:50:06.909Z,62.20
2019-05-23T11:52:40.605Z,61.50
2019-05-23T11:55:13.862Z,61.40
2019-05-23T11:57:48.160Z,62.50
2019-05-23T12:00:30.169Z,63.60
2019-05-23T12:03:04.312Z,63.70
2019-05-23T12:05:36.755Z,64.00
2019-05-23T12:08:09.452Z,65.10
2019-05-23T12:10:42.043Z,65.90
2019-05-23T12:13:15.262Z,65.60
2019-05-23T12:15:51.367Z,65.60
2019-05-23T12:18:24.650Z,65.10
2019-05-23T12:20:59.863Z,64.30
2019-05-23T12:23:32.827Z,63.80
2019-05-23T12:26:06.316Z,63.70
2019-05-23T12:28:38.835Z,62.70
2019-05-23T12:31:11.778Z,63.30
2019-05-23T12:33:44.161Z,61.90
2019-05-23T12:36:17.460Z,61.90
2019-05-23T12:38:50.416Z,62.60
2019-05-23T12:41:23.738Z,64.70
2019-05-23T12:43:55.703Z,64.70
2019-05-23T12:46:29.432Z,64.80
2019-05-23T12:49:09.064Z,64.70
2019-05-23T12:51:41.582Z,63.70
2019-05-23T12:54:14.636Z,63.80
2019-05-23T12:56:49.002Z,62.50
2019-05-23T12:59:20.864Z,61.50
2019-05-23T13:01:54.948Z,62.20
2019-05-23T13:04:27.467Z,62.30
2019-05-23T13:07:00.428Z,61.90
2019-05-23T13:09:32.903Z,61.30
2019-05-23T13:12:06.458Z,60.60
2019-05-23T13:14:39.570Z,60.70
2019-05-23T13:17:12.027Z,61.10
2019-05-23T13:19:44.961Z,60.90
2019-05-23T13:22:18.542Z,61.80
2019-05-23T13:24:53.423Z,61.80
2019-05-23T13:27:26.412Z,61.70
2019-05-23T13:29:59.845Z,61.30
2019-05-23T13:32:32.492Z,61.50
2019-05-23T13:35:05.169Z,61.70
2019-05-23T13:37:52.306Z,61.30
2019-05-23T13:40:13.809Z,61.90
2019-05-23T13:42:47.313Z,61.60
2019-05-23T13:45:19.783Z,61.30
2019-05-23T13:47:53.783Z,60.60
2019-05-23T13:50:26.424Z,60.50
2019-05-23T13:52:58.841Z,60.70
2019-05-23T13:55:32.757Z,60.50
2019-05-23T13:58:06.766Z,60.50
2019-05-23T14:00:40.552Z,60.00
2019-05-23T14:03:14.705Z,59.80
2019-05-23T14:05:48.605Z,59.20
2019-05-23T14:08:21.308Z,58.40
2019-05-23T14:10:54.870Z,58.60
2019-05-23T14:13:28.872Z,58.20
2019-05-23T14:16:03.433Z,57.80
2019-05-23T14:18:47.717Z,58.40
2019-05-23T14:21:22.040Z,59.10
2019-05-23T14:23:56.331Z,59.30
2019-05-23T14:26:32.112Z,58.60
2019-05-23T14:29:07.792Z,58.80
2019-05-23T14:31:47.615Z,59.80
2019-05-23T14:34:20.897Z,59.80
2019-05-23T14:37:09.198Z,59.50
2019-05-23T14:40:10.962Z,59.70
2019-05-23T14:43:11.306Z,60.80
2019-05-23T14:46:06.040Z,60.60
2019-05-23T14:49:07.930Z,60.60
2019-05-23T14:52:03.014Z,60.60
2019-05-23T14:54:41.065Z,59.20
2019-05-23T14:57:15.575Z,59.50
2019-05-23T14:59:49.285Z,58.90
2019-05-23T15:02:24.279Z,59.10
2019-05-23T15:04:58.150Z,58.80
2019-05-23T15:07:31.911Z,58.40
2019-05-23T15:10:05.290Z,57.20
2019-05-23T15:12:38.991Z,57.80
2019-05-23T15:15:12.664Z,58.50
2019-05-23T15:17:46.897Z,57.40
2019-05-23T15:20:21.951Z,57.50
2019-05-23T15:22:59.688Z,56.50
2019-05-23T15:25:31.559Z,56.60
2019-05-23T15:28:05.892Z,56.80
2019-05-23T15:30:40.070Z,57.30
2019-05-23T15:33:14.324Z,57.10
2019-05-23T15:35:48.491Z,56.80
2019-05-23T15:38:22.737Z,57.30
2019-05-23T15:40:56.949Z,57.00
2019-05-23T15:43:31.036Z,57.40
2019-05-23T15:46:05.193Z,57.80
2019-05-23T15:48:38.374Z,57.30
2019-05-23T15:51:13.929Z,56.80
2019-05-23T15:53:54.473Z,56.40
2019-05-23T15:56:56.347Z,55.60
2019-05-23T15:59:55.448Z,54.60
2019-05-23T16:02:33.307Z,53.80
2019-05-23T16:05:08.698Z,53.60
2019-05-23T16:07:42.363Z,53.20
2019-05-23T16:10:17.633Z,53.00
2019-05-23T16:12:51.526Z,53.10
2019-05-23T16:15:25.570Z,53.20
2019-05-23T16:18:00.670Z,53.80
2019-05-23T16:20:34.229Z,53.80
2019-05-23T16:23:08.509Z,52.80
2019-05-23T16:25:43.136Z,52.00
2019-05-23T16:28:16.420Z,52.20
2019-05-23T16:30:50.625Z,53.20
2019-05-23T16:33:24.008Z,53.90
2019-05-23T16:35:58.171Z,53.70
2019-05-23T16:38:32.348Z,52.20
2019-05-23T16:41:06.544Z,52.10
2019-05-23T16:43:39.755Z,52.50
2019-05-23T16:46:13.490Z,51.90
2019-05-23T16:48:47.385Z,52.70
2019-05-23T16:51:21.123Z,52.90
2019-05-23T16:53:55.473Z,52.80
2019-05-23T16:56:36.815Z,52.50
2019-05-23T16:59:41.408Z,52.30
2019-05-23T17:02:48.799Z,52.50
2019-05-23T17:05:39.823Z,52.60
2019-05-23T17:08:41.296Z,52.60
2019-05-23T17:11:50.979Z,53.10
2019-05-23T17:14:39.391Z,53.50
2019-05-23T17:17:56.672Z,53.20
2019-05-23T17:20:30.498Z,54.20
2019-05-23T17:23:28.450Z,53.60
2019-05-23T17:26:08.060Z,53.50
2019-05-23T17:28:44.134Z,53.20
2019-05-23T17:31:19.990Z,52.90
2019-05-23T17:33:52.797Z,53.20
2019-05-23T17:36:26.690Z,53.00
2019-05-23T17:38:59.644Z,52.80
2019-05-23T17:41:32.408Z,52.70
2019-05-23T17:44:04.955Z,52.40
2019-05-23T17:46:37.945Z,52.90
2019-05-23T17:49:11.184Z,53.50
2019-05-23T17:51:44.186Z,53.20
2019-05-23T17:54:18.689Z,52.80
2019-05-23T17:56:52.371Z,53.50
2019-05-23T17:59:25.219Z,53.30
2019-05-23T18:01:57.768Z,53.80
2019-05-23T18:04:30.821Z,53.30
2019-05-23T18:07:02.770Z,53.10
2019-05-23T18:09:36.251Z,53.00
2019-05-23T18:12:09.516Z,52.70
2019-05-23T18:14:42.839Z,52.90
2019-05-23T18:17:15.329Z,52.80
2019-05-23T18:19:47.384Z,52.80
2019-05-23T18:22:21.053Z,53.60
2019-05-23T18:24:59.489Z,54.30
2019-05-23T18:27:29.356Z,54.20
2019-05-23T18:30:04.540Z,54.30
2019-05-23T18:32:37.935Z,54.20
2019-05-23T18:35:12.757Z,54.50
2019-05-23T18:37:46.581Z,54.20
2019-05-23T18:40:21.217Z,54.00
2019-05-23T18:42:54.558Z,54.20
2019-05-23T18:45:27.765Z,54.10
2019-05-23T18:48:02.338Z,53.70
2019-05-23T18:50:36.252Z,53.60
2019-05-23T18:53:10.641Z,53.60
2019-05-23T18:55:45.084Z,53.60
2019-05-23T18:58:19.975Z,53.50
2019-05-23T19:01:14.684Z,53.80
2019-05-23T19:03:48.512Z,53.80
2019-05-23T19:06:21.866Z,53.80
2019-05-23T19:08:55.122Z,53.00
2019-05-23T19:11:28.905Z,53.00
2019-05-23T19:14:04.858Z,52.90
2019-05-23T19:16:39.457Z,53.20
2019-05-23T19:19:14.221Z,52.40
2019-05-23T19:21:48.296Z,52.00
2019-05-23T19:24:21.239Z,52.10
2019-05-23T19:26:55.446Z,52.30
2019-05-23T19:29:29.370Z,52.20
2019-05-23T19:32:02.603Z,52.70
2019-05-23T19:34:36.086Z,52.10
2019-05-23T19:37:10.885Z,52.10
2019-05-23T19:39:45.619Z,51.80
2019-05-23T19:42:19.065Z,50.90
2019-05-23T19:44:52.538Z,50.70
2019-05-23T19:47:26.132Z,50.50
2019-05-23T19:49:59.063Z,50.60
2019-05-23T19:52:31.532Z,51.20
2019-05-23T19:55:06.187Z,51.50
2019-05-23T19:57:38.740Z,52.20
2019-05-23T20:00:32.190Z,52.70
2019-05-23T20:03:05.256Z,52.70
2019-05-23T20:05:40.038Z,53.20
2019-05-23T20:08:13.330Z,52.50
2019-05-23T20:10:46.332Z,52.60
2019-05-23T20:13:19.982Z,52.20
2019-05-23T20:15:52.785Z,51.80
2019-05-23T20:18:25.025Z,51.00
2019-05-23T20:20:58.172Z,51.40
2019-05-23T20:23:30.218Z,51.40
2019-05-23T20:26:07.480Z,52.60
2019-05-23T20:28:40.006Z,52.00
2019-05-23T20:31:12.569Z,52.70
2019-05-23T20:33:44.996Z,53.00
2019-05-23T20:36:17.443Z,53.40
2019-05-23T20:38:51.451Z,53.30
2019-05-23T20:41:24.096Z,53.10
2019-05-23T20:43:56.990Z,53.10
2019-05-23T20:46:29.801Z,53.10
2019-05-23T20:49:01.699Z,52.60
2019-05-23T20:51:35.472Z,52.20
2019-05-23T20:54:08.384Z,51.60
2019-05-23T20:56:41.908Z,51.60
2019-05-23T20:59:16.288Z,51.00
2019-05-23T21:01:50.534Z,50.80
2019-05-23T21:04:23.391Z,50.40
2019-05-23T21:06:57.737Z,50.90
2019-05-23T21:09:29.767Z,50.90
2019-05-23T21:12:04.163Z,51.80
2019-05-23T21:14:36.947Z,51.10
2019-05-23T21:17:10.302Z,50.80
2019-05-23T21:19:44.458Z,50.50
2019-05-23T21:22:17.000Z,50.40
2019-05-23T21:24:49.016Z,51.20
2019-05-23T21:27:21.937Z,50.50
2019-05-23T21:29:54.790Z,50.50
2019-05-23T21:32:27.972Z,50.80
2019-05-23T21:35:00.761Z,50.50
2019-05-23T21:37:34.450Z,51.00
2019-05-23T21:40:07.977Z,51.60
2019-05-23T21:42:47.709Z,51.80
2019-05-23T21:45:15.386Z,51.70
2019-05-23T21:47:48.823Z,51.60
2019-05-23T21:50:21.846Z,51.50
2019-05-23T21:52:55.224Z,51.40
2019-05-23T21:55:41.084Z,51.10
2019-05-23T21:58:14.931Z,51.80
2019-05-23T22:01:41.971Z,50.90
2019-05-23T22:04:34.134Z,51.10
2019-05-23T22:07:11.551Z,51.50
2019-05-23T22:09:44.951Z,52.10
2019-05-23T22:12:19.127Z,52.10
2019-05-23T22:14:52.882Z,52.70
2019-05-23T22:17:28.233Z,52.70
2019-05-23T22:20:02.630Z,52.10
2019-05-23T22:22:36.720Z,51.60
2019-05-23T22:25:09.703Z,51.90
2019-05-23T22:27:44.868Z,51.90
2019-05-23T22:30:19.263Z,52.00
2019-05-23T22:32:54.586Z,52.00
2019-05-23T22:35:28.955Z,52.20
2019-05-23T22:38:03.053Z,52.20
2019-05-23T22:40:38.665Z,51.50
2019-05-23T22:43:20.962Z,50.70
2019-05-23T22:45:49.863Z,49.60
2019-05-23T22:48:24.234Z,49.30
2019-05-23T22:50:57.932Z,50.00
2019-05-23T22:53:31.998Z,49.60
2019-05-23T22:56:06.267Z,49.30
2019-05-23T22:58:39.970Z,49.40
2019-05-23T23:01:13.625Z,49.80
2019-05-23T23:03:47.553Z,50.50
2019-05-23T23:06:21.740Z,51.40
2019-05-23T23:08:56.010Z,51.10
2019-05-23T23:11:29.276Z,50.90
2019-05-23T23:14:03.114Z,50.90
2019-05-23T23:16:36.887Z,50.50
2019-05-23T23:19:10.313Z,50.10
2019-05-23T23:21:44.387Z,49.50
2019-05-23T23:24:18.618Z,49.30
2019-05-23T23:26:53.044Z,49.50
2019-05-23T23:29:26.671Z,49.50
2019-05-23T23:32:03.771Z,49.30
2019-05-23T23:34:35.997Z,49.40
2019-05-23T23:37:09.603Z,49.40
2019-05-23T23:39:43.633Z,49.80
2019-05-23T23:42:17.738Z,50.20
2019-05-23T23:44:49.685Z,50.10
2019-05-23T23:47:40.289Z,50.00
2019-05-23T23:50:30.411Z,50.30
2019-05-23T23:53:21.489Z,50.50
2019-05-23T23:56:12.499Z,50.40
2019-05-23T23:58:44.384Z,50.60
